Harbor Lights — WDF4145 — position and weather

sailwx.info

Track history (hours):
 
Tides and Currents Weather Stations Pressure Air Temp Water Temp Dewpoint Dewpoint Depression Visibility Wind Speed Wind Dir Waves Ship Positions

Harbor Lights

Owner: Franik Holdings LLC, Highlands, NJ. More information available from US FCC via Universal Licensing System and Coast Guard Vessel Documentation Center.

Last reported at 2014-Jun-01 20:33 UTC. Time now 2014-Oct-23 09:28 UTC.
Position N 40°43' W 073°59'.
Warning: this ship's position is months out of date.

MMSI: 367448510.

Date/timePositionNaut miles runAvg speedWind from/ knotsBaromVisibWave heightAir tempDewpointWater temp
2014-Jun-01 20:33N 40°43' W 073°59'3 2.7
2014-Jun-01 19:32N 40°42' W 074°02'1 0.1
2014-Jun-01 06:32N 40°42' W 074°01'1 1.2
2014-Jun-01 05:33N 40°42' W 074°02'1 0.2
2014-Jun-01 00:33N 40°41' W 074°02'2 1.8
2014-May-31 23:33N 40°42' W 074°00'2 0.4
2014-May-31 19:03N 40°43' W 073°58'2 2.9
2014-May-31 18:28N 40°42' W 074°00'1 1.6
2014-May-31 17:33N 40°42' W 074°02'2 1.8
2014-May-31 16:33N 40°42' W 073°60'1 0.0
2014-May-31 01:33N 40°42' W 074°00'  
2014-May-26 02:56N 40°44' W 073°58'0 1.0
2014-May-26 02:34N 40°44' W 073°58'2 3.3
2014-May-26 02:04N 40°42' W 073°59'2 3.9
2014-May-26 01:33N 40°42' W 074°01'1 1.1
2014-May-26 01:05N 40°42' W 074°02'3 6.3
2014-May-26 00:33N 40°43' W 073°58'1 2.1
2014-May-26 00:04N 40°44' W 073°58'0 0.0
2014-May-25 23:33N 40°44' W 073°58'0 0.0
2014-May-25 23:18N 40°44' W 073°58'0 0.0
2014-May-25 22:34N 40°44' W 073°58'0 0.0
2014-May-25 21:33N 40°44' W 073°58'2 2.1
2014-May-25 20:33N 40°42' W 073°60'1 0.7
2014-May-25 19:33N 40°43' W 073°59'2 1.6
2014-May-25 18:33N 40°44' W 073°58'0 0.0
2014-May-25 07:33N 40°44' W 073°58'1 0.9
2014-May-25 06:34N 40°43' W 073°58'3 2.9
2014-May-25 05:33N 40°42' W 074°02'3 3.0
2014-May-25 04:32N 40°44' W 073°58'0 0.0
2014-May-25 02:28N 40°44' W 073°58'2 2.0
2014-May-25 01:34N 40°42' W 073°59'1 0.5
2014-May-25 00:34N 40°42' W 073°60'2 1.6
2014-May-24 23:19N 40°44' W 073°58'0 0.0
2014-May-24 22:24N 40°44' W 073°58'0 0.0
2014-May-24 06:34N 40°44' W 073°58'1 1.1
2014-May-24 05:34N 40°43' W 073°58'3 2.7
2014-May-24 04:31N 40°42' W 074°02'  
Track history (hours):
 
Tides and Currents Weather Stations Pressure Air Temp Water Temp Dewpoint Dewpoint Depression Visibility Wind Speed Wind Dir Waves Ship Positions

Harbor Lights

Owner: Franik Holdings LLC, Highlands, NJ. More information available from US FCC via Universal Licensing System and Coast Guard Vessel Documentation Center.

Last reported at 2014-Jun-01 20:33 UTC. Time now 2014-Oct-23 09:28 UTC.
Position N 40°43' W 073°59'.
Warning: this ship's position is months out of date.

MMSI: 367448510.

Date/timePositionNaut miles runAvg speedWind from/ knotsBaromVisibWave heightAir tempDewpointWater temp
2014-Jun-01 20:33N 40°43' W 073°59'3 2.7
2014-Jun-01 19:32N 40°42' W 074°02'1 0.1
2014-Jun-01 06:32N 40°42' W 074°01'1 1.2
2014-Jun-01 05:33N 40°42' W 074°02'1 0.2
2014-Jun-01 00:33N 40°41' W 074°02'2 1.8
2014-May-31 23:33N 40°42' W 074°00'2 0.4
2014-May-31 19:03N 40°43' W 073°58'2 2.9
2014-May-31 18:28N 40°42' W 074°00'1 1.6
2014-May-31 17:33N 40°42' W 074°02'2 1.8
2014-May-31 16:33N 40°42' W 073°60'1 0.0
2014-May-31 01:33N 40°42' W 074°00'  
2014-May-26 02:56N 40°44' W 073°58'0 1.0
2014-May-26 02:34N 40°44' W 073°58'2 3.3
2014-May-26 02:04N 40°42' W 073°59'2 3.9
2014-May-26 01:33N 40°42' W 074°01'1 1.1
2014-May-26 01:05N 40°42' W 074°02'3 6.3
2014-May-26 00:33N 40°43' W 073°58'1 2.1
2014-May-26 00:04N 40°44' W 073°58'0 0.0
2014-May-25 23:33N 40°44' W 073°58'0 0.0
2014-May-25 23:18N 40°44' W 073°58'0 0.0
2014-May-25 22:34N 40°44' W 073°58'0 0.0
2014-May-25 21:33N 40°44' W 073°58'2 2.1
2014-May-25 20:33N 40°42' W 073°60'1 0.7
2014-May-25 19:33N 40°43' W 073°59'2 1.6
2014-May-25 18:33N 40°44' W 073°58'0 0.0
2014-May-25 07:33N 40°44' W 073°58'1 0.9
2014-May-25 06:34N 40°43' W 073°58'3 2.9
2014-May-25 05:33N 40°42' W 074°02'3 3.0
2014-May-25 04:32N 40°44' W 073°58'0 0.0
2014-May-25 02:28N 40°44' W 073°58'2 2.0
2014-May-25 01:34N 40°42' W 073°59'1 0.5
2014-May-25 00:34N 40°42' W 073°60'2 1.6
2014-May-24 23:19N 40°44' W 073°58'0 0.0
2014-May-24 22:24N 40°44' W 073°58'0 0.0
2014-May-24 06:34N 40°44' W 073°58'1 1.1
2014-May-24 05:34N 40°43' W 073°58'3 2.7
2014-May-24 04:31N 40°42' W 074°02'  

Dump ship's entire track history